Kenilworth, NJ

2:13 PM EST on March 03, 2015 (GMT -0500)
Kenilworth, N.J. | Change Station
CLOSE
Current Station
Personal Weather Station
Location: Kenilworth, NJ
Elevation: 92 ft
Nearby Weather Stations

Elev 92 ft 40.67 °N, 74.30 °W | Updated 12 minutes ago

Overcast
Overcast
31.4 °F
Feels Like 31 °F
N
2.0
Wind Variable Wind from SE
Gusts 5.0 mph

Today
High -- | Low -- °F
--% Chance of Precip.
Yesterday
High -- | Low -- °F
Precip. -- in
6:28 AM 5:50 PM
Waxing Gibbous, 97% visible
Pressure 30.31 in
Visibility 10.0 miles
Clouds Mostly Cloudy 5000 ft
Overcast 6500 ft
Windchill 31 °F
Dew Point 19 °F
Humidity 60%
Rainfall 0.00 in
Snow Depth Not available.
UV 1.2 out of 12
Pollen .50 out of 12
Air Quality Not available.
Flu Activity Not available.
METAR KLDJ 031915Z AUTO 16006KT 10SM BKN050 OVC065 03/M07 A3031 RMK AO2 T00271067

More Conditions Fewer Conditions

Pressure 30.31 in
Visibility 10.0 miles
Clouds Mostly Cloudy 5000 ft
Overcast 6500 ft
Windchill 31 °F
Dew Point 19 °F
Humidity 60%
Rainfall 0.00 in
Snow Depth Not available.
UV 1.2 out of 12
Pollen .50 out of 12
Air Quality Not available.
Flu Activity Not available.
METAR KLDJ 031915Z AUTO 16006KT 10SM BKN050 OVC065 03/M07 A3031 RMK AO2 T00271067

More Conditions Fewer Conditions

10-Day Weather Forecast

Almanac

Astronomy

Mar. 03, 2015 Rise Set
Actual Time
Civil Twilight
Nautical Twilight
Astronomical Twilight
Moon
Length of Visible Light
Length of Day
Tomorrow will be .
, % of the Moon is Illuminated

Today's Extremes

State Highs State Lows

Community

WunderPhotos

Upload Photos

1,802,201 photos uploaded!

WunderBlogs® & News

Nearby

Air Quality

  Air Quality AQ Index Pollutant
Not available.

Snow Depth

Station Depth Elevation

Earthquake Activity

City Distance Mag. Time & Date
Minimum magnitude displayed is 2.5.

Coastal Water Temperatures

Place Temperature

Nearby Weather Stations

Winter Weather Advisory
Statement as of 4:01 AM EST on March 03, 2015

... Winter Weather Advisory remains in effect from 3 PM this
afternoon to 2 am EST Wednesday...

* locations... New York City... Nassau and western Suffolk County... as
well as Union... Essex and Hudson counties...

* hazard types... snow... sleet and freezing rain.

* Accumulations... snow accumulation of 1 to 3 inches... along with
less than a tenth of an inch of ice.

* Temperatures... in the lower 30s.

* Timing... snow develops late this afternoon... then mixes with
sleet and freezing rain this evening before changing to freezing
rain by midnight... then to plain rain late at night.

* Impacts... snow covered surfaces... coated with ice... will make
traveling difficult at times.

Precautionary/preparedness actions...

A Winter Weather Advisory means that periods of snow... sleet... or
freezing rain will cause travel difficulties. Be prepared for
slippery roads and limited visibilities... and use caution while
driving.